createdAt,value
2018-11-03T00:00:32.569Z,5.70
2018-11-03T00:03:03.934Z,5.30
2018-11-03T00:05:35.216Z,5.03
2018-11-03T00:08:06.558Z,5.40
2018-11-03T00:10:40.383Z,4.93
2018-11-03T00:13:11.469Z,5.63
2018-11-03T00:15:42.869Z,5.00
2018-11-03T00:18:14.096Z,4.40
2018-11-03T00:20:45.259Z,5.27
2018-11-03T00:23:16.540Z,5.77
2018-11-03T00:25:47.595Z,5.50
2018-11-03T00:28:18.761Z,5.97
2018-11-03T00:30:50.070Z,5.43
2018-11-03T00:33:21.247Z,5.27
2018-11-03T00:35:52.636Z,5.57
2018-11-03T00:38:23.744Z,5.30
2018-11-03T00:40:54.874Z,6.50
2018-11-03T00:43:26.039Z,6.17
2018-11-03T00:45:57.362Z,5.60
2018-11-03T00:48:28.541Z,4.77
2018-11-03T00:50:59.695Z,5.67
2018-11-03T00:53:30.806Z,5.57
2018-11-03T00:56:01.914Z,6.07
2018-11-03T00:58:33.170Z,5.73
2018-11-03T01:01:04.308Z,5.40
2018-11-03T01:03:37.855Z,5.17
2018-11-03T01:06:08.826Z,5.70
2018-11-03T01:08:40.020Z,5.83
2018-11-03T01:11:11.154Z,4.70
2018-11-03T01:13:42.452Z,4.50
2018-11-03T01:16:13.598Z,5.13
2018-11-03T01:18:46.334Z,4.70
2018-11-03T01:21:17.419Z,5.07
2018-11-03T01:23:48.643Z,5.10
2018-11-03T01:26:19.880Z,5.20
2018-11-03T01:28:51.175Z,5.37
2018-11-03T01:31:22.406Z,4.97
2018-11-03T01:33:53.594Z,4.97
2018-11-03T01:36:24.889Z,5.03
2018-11-03T01:38:56.236Z,4.70
2018-11-03T01:41:27.555Z,4.90
2018-11-03T01:43:58.649Z,5.10
2018-11-03T01:46:29.788Z,5.43
2018-11-03T01:49:00.896Z,5.67
2018-11-03T01:51:32.068Z,5.97
2018-11-03T01:54:03.401Z,5.33
2018-11-03T01:56:34.503Z,5.70
2018-11-03T01:59:05.786Z,5.23
2018-11-03T02:01:37.029Z,5.07
2018-11-03T02:04:08.085Z,5.20
2018-11-03T02:06:39.250Z,5.50
2018-11-03T02:09:11.482Z,4.80
2018-11-03T02:11:42.569Z,4.70
2018-11-03T02:14:13.781Z,5.67
2018-11-03T02:16:44.925Z,5.20
2018-11-03T02:19:16.217Z,5.97
2018-11-03T02:21:47.353Z,5.80
2018-11-03T02:24:18.470Z,5.97
2018-11-03T02:26:49.709Z,5.63
2018-11-03T02:29:20.949Z,6.03
2018-11-03T02:31:54.769Z,4.73
2018-11-03T02:34:26.138Z,5.50
2018-11-03T02:36:57.503Z,6.03
2018-11-03T02:39:28.795Z,5.30
2018-11-03T02:42:00.123Z,4.40
2018-11-03T02:44:31.445Z,4.93
2018-11-03T02:47:02.561Z,5.33
2018-11-03T02:49:33.706Z,4.87
2018-11-03T02:52:04.882Z,4.93
2018-11-03T02:54:36.049Z,5.33
2018-11-03T02:57:07.175Z,5.67
2018-11-03T02:59:38.260Z,5.53
2018-11-03T03:02:09.495Z,4.70
2018-11-03T03:04:40.861Z,5.23
2018-11-03T03:07:12.135Z,4.80
2018-11-03T03:09:43.284Z,3.93
2018-11-03T03:12:16.034Z,4.63
2018-11-03T03:14:48.482Z,4.47
2018-11-03T03:17:19.680Z,4.57
2018-11-03T03:19:50.884Z,4.30
2018-11-03T03:22:22.017Z,4.23
2018-11-03T03:24:54.257Z,4.23
2018-11-03T03:27:25.489Z,4.50
2018-11-03T03:29:56.754Z,4.83
2018-11-03T03:32:27.936Z,4.33
2018-11-03T03:34:59.310Z,4.53
2018-11-03T03:37:33.182Z,4.40
2018-11-03T03:40:04.347Z,4.17
2018-11-03T03:42:35.734Z,4.70
2018-11-03T03:45:07.691Z,4.27
2018-11-03T03:47:39.002Z,4.47
2018-11-03T03:50:11.528Z,4.57
2018-11-03T03:52:42.707Z,4.23
2018-11-03T03:55:13.937Z,4.60
2018-11-03T03:57:45.187Z,4.83
2018-11-03T04:00:16.265Z,4.87
2018-11-03T04:02:47.541Z,3.77
2018-11-03T04:05:18.714Z,5.37
2018-11-03T04:07:49.906Z,4.40
2018-11-03T04:10:21.075Z,4.40
2018-11-03T04:12:52.216Z,4.67
2018-11-03T04:15:23.448Z,4.80
2018-11-03T04:17:54.872Z,4.10
2018-11-03T04:20:25.984Z,4.60
2018-11-03T04:22:57.161Z,5.37
2018-11-03T04:25:28.378Z,5.53
2018-11-03T04:27:59.595Z,4.20
2018-11-03T04:30:30.821Z,4.30
2018-11-03T04:33:02.040Z,4.60
2018-11-03T04:35:33.152Z,4.40
2018-11-03T04:38:04.452Z,5.37
2018-11-03T04:40:35.826Z,6.00
2018-11-03T04:43:07.091Z,5.47
2018-11-03T04:45:38.404Z,5.43
2018-11-03T04:48:09.422Z,4.37
2018-11-03T04:50:40.602Z,4.77
2018-11-03T04:53:11.735Z,5.47
2018-11-03T04:55:42.890Z,4.40
2018-11-03T04:58:14.148Z,4.70
2018-11-03T05:00:45.505Z,4.53
2018-11-03T05:03:16.742Z,4.40
2018-11-03T05:05:47.961Z,4.87
2018-11-03T05:08:19.217Z,4.90
2018-11-03T05:10:53.183Z,5.03
2018-11-03T05:13:24.398Z,4.97
2018-11-03T05:15:55.641Z,5.00
2018-11-03T05:18:28.216Z,5.23
2018-11-03T05:20:59.450Z,5.10
2018-11-03T05:23:30.759Z,5.00
2018-11-03T05:26:02.038Z,4.33
2018-11-03T05:28:33.294Z,3.83
2018-11-03T05:31:04.585Z,4.87
2018-11-03T05:33:35.789Z,4.40
2018-11-03T05:36:06.960Z,5.23
2018-11-03T05:38:38.026Z,5.30
2018-11-03T05:41:09.299Z,7.07
2018-11-03T05:43:40.620Z,6.13
2018-11-03T05:46:11.875Z,6.63
2018-11-03T05:48:43.075Z,6.20
2018-11-03T05:51:14.316Z,5.90
2018-11-03T05:53:45.509Z,6.30
2018-11-03T05:56:16.635Z,6.37
2018-11-03T05:58:47.739Z,5.87
2018-11-03T06:01:18.887Z,5.97
2018-11-03T06:03:50.034Z,5.83
2018-11-03T06:06:21.256Z,7.47
2018-11-03T06:08:52.666Z,7.27
2018-11-03T06:11:23.813Z,5.90
2018-11-03T06:13:54.981Z,6.83
2018-11-03T06:16:26.045Z,6.43
2018-11-03T06:18:57.210Z,7.47
2018-11-03T06:21:28.441Z,6.93
2018-11-03T06:23:59.686Z,8.13
2018-11-03T06:26:30.919Z,7.63
2018-11-03T06:29:02.200Z,7.17
2018-11-03T06:31:35.481Z,7.70
2018-11-03T06:34:06.821Z,7.33
2018-11-03T06:36:38.083Z,7.40
2018-11-03T06:39:09.730Z,7.77
2018-11-03T06:41:40.739Z,6.90
2018-11-03T06:44:11.811Z,7.50
2018-11-03T06:46:43.102Z,7.47
2018-11-03T06:49:21.077Z,8.30
2018-11-03T06:51:52.828Z,7.10
2018-11-03T06:54:24.084Z,7.13
2018-11-03T06:56:55.467Z,6.23
2018-11-03T06:59:26.706Z,6.33
2018-11-03T07:01:59.697Z,6.97
2018-11-03T07:04:30.830Z,7.50
2018-11-03T07:07:02.055Z,7.77
2018-11-03T07:09:33.232Z,7.67
2018-11-03T07:12:04.565Z,8.03
2018-11-03T07:14:35.870Z,8.37
2018-11-03T07:17:07.031Z,8.37
2018-11-03T07:19:38.264Z,8.03
2018-11-03T07:22:09.540Z,8.70
2018-11-03T07:24:40.878Z,8.00
2018-11-03T07:27:12.190Z,8.77
2018-11-03T07:29:43.760Z,8.83
2018-11-03T07:32:15.047Z,8.50
2018-11-03T07:34:46.156Z,10.10
2018-11-03T07:37:18.465Z,8.80
2018-11-03T07:39:49.688Z,9.43
2018-11-03T07:42:21.139Z,10.23
2018-11-03T07:44:52.421Z,26.13
2018-11-03T07:47:23.741Z,10.17
2018-11-03T07:49:55.157Z,9.80
2018-11-03T07:52:26.251Z,10.17
2018-11-03T07:54:57.635Z,11.60
2018-11-03T07:57:28.913Z,10.83
2018-11-03T08:00:00.175Z,10.40
2018-11-03T08:02:31.570Z,10.13
2018-11-03T08:05:02.871Z,10.47
2018-11-03T08:07:34.165Z,10.70
2018-11-03T08:10:05.417Z,9.83
2018-11-03T08:12:36.618Z,10.63
2018-11-03T08:15:09.489Z,10.67
2018-11-03T08:17:41.041Z,11.30
2018-11-03T08:20:12.632Z,10.27
2018-11-03T08:22:43.878Z,11.70
2018-11-03T08:25:15.038Z,12.37
2018-11-03T08:27:46.340Z,11.77
2018-11-03T08:30:17.489Z,11.70
2018-11-03T08:32:48.844Z,11.97
2018-11-03T08:35:20.122Z,12.07
2018-11-03T08:37:51.304Z,11.83
2018-11-03T08:40:22.917Z,10.97
2018-11-03T08:42:54.056Z,11.27
2018-11-03T08:45:25.301Z,12.50
2018-11-03T08:47:56.646Z,11.53
2018-11-03T08:50:28.181Z,12.33
2018-11-03T08:52:59.551Z,10.60
2018-11-03T08:55:30.841Z,12.57
2018-11-03T08:58:02.280Z,13.20
2018-11-03T09:00:33.476Z,13.30
2018-11-03T09:03:04.856Z,12.40
2018-11-03T09:05:36.170Z,13.97
2018-11-03T09:08:07.579Z,14.13
2018-11-03T09:10:38.849Z,15.27
2018-11-03T09:13:10.191Z,13.40
2018-11-03T09:15:41.579Z,14.47
2018-11-03T09:18:12.648Z,15.13
2018-11-03T09:20:44.390Z,14.33
2018-11-03T09:23:15.674Z,14.00
2018-11-03T09:25:47.052Z,14.27
2018-11-03T09:28:18.272Z,14.77
2018-11-03T09:30:49.483Z,13.93
2018-11-03T09:33:20.854Z,12.73
2018-11-03T09:35:52.088Z,15.23
2018-11-03T09:38:23.299Z,16.30
2018-11-03T09:40:54.847Z,14.47
2018-11-03T09:43:26.318Z,16.93
2018-11-03T09:45:57.503Z,15.33
2018-11-03T09:48:29.407Z,15.80
2018-11-03T09:51:00.758Z,16.20
2018-11-03T09:53:32.142Z,14.93
2018-11-03T09:56:03.213Z,15.77
2018-11-03T09:58:34.714Z,16.37
2018-11-03T10:01:06.079Z,15.03
2018-11-03T10:03:37.691Z,16.13
2018-11-03T10:06:08.966Z,16.27
2018-11-03T10:08:40.337Z,16.03
2018-11-03T10:11:11.705Z,15.63
2018-11-03T10:13:42.908Z,14.40
2018-11-03T10:16:14.254Z,15.87
2018-11-03T10:18:45.417Z,15.97
2018-11-03T10:21:17.819Z,16.23
2018-11-03T10:23:48.941Z,16.23
2018-11-03T10:26:19.959Z,15.37
2018-11-03T10:28:51.008Z,15.80
2018-11-03T10:31:22.024Z,13.70
2018-11-03T10:33:53.241Z,13.73
2018-11-03T10:36:24.410Z,13.13
2018-11-03T10:38:55.681Z,13.23
2018-11-03T10:41:27.030Z,13.50
2018-11-03T10:43:58.281Z,13.40
2018-11-03T10:46:29.577Z,12.83
2018-11-03T10:49:00.791Z,13.93
2018-11-03T10:51:32.057Z,13.10
2018-11-03T10:54:03.306Z,11.70
2018-11-03T10:56:34.660Z,11.60
2018-11-03T10:59:05.931Z,12.47
2018-11-03T11:01:54.573Z,12.17
2018-11-03T11:04:47.475Z,12.80
2018-11-03T11:07:36.197Z,11.87
2018-11-03T11:10:24.587Z,11.10
2018-11-03T11:12:55.781Z,10.97
2018-11-03T11:15:27.023Z,11.10
2018-11-03T11:17:59.055Z,11.23
2018-11-03T11:20:30.433Z,10.67
2018-11-03T11:23:01.658Z,11.27
2018-11-03T11:25:32.913Z,10.97
2018-11-03T11:28:04.127Z,11.10
2018-11-03T11:30:42.090Z,10.63
2018-11-03T11:33:17.657Z,10.30
2018-11-03T11:35:48.833Z,10.63
2018-11-03T11:38:20.214Z,10.63
2018-11-03T11:40:51.573Z,10.43
2018-11-03T11:43:22.725Z,10.60
2018-11-03T11:45:54.027Z,10.57
2018-11-03T11:48:25.318Z,10.73
2018-11-03T11:50:56.723Z,10.57
2018-11-03T11:53:27.998Z,10.23
2018-11-03T11:55:59.352Z,9.27
2018-11-03T11:58:30.612Z,8.70
2018-11-03T12:01:01.895Z,10.30
2018-11-03T12:03:33.423Z,11.33
2018-11-03T12:06:04.838Z,11.47
2018-11-03T12:08:36.341Z,11.33
2018-11-03T12:11:07.631Z,11.22
2018-11-03T12:13:38.817Z,10.63
2018-11-03T12:16:10.294Z,10.93
2018-11-03T12:18:41.404Z,11.30
2018-11-03T12:21:12.658Z,10.55
2018-11-03T12:23:43.945Z,10.13
2018-11-03T12:26:15.209Z,11.05
2018-11-03T12:28:46.522Z,10.90
2018-11-03T12:31:17.895Z,11.18
2018-11-03T12:33:49.170Z,12.43
2018-11-03T12:36:20.487Z,13.37
2018-11-03T12:38:51.882Z,12.73
2018-11-03T12:41:23.017Z,12.78
2018-11-03T12:43:54.219Z,11.03
2018-11-03T12:46:25.371Z,12.75
2018-11-03T12:48:56.700Z,13.17
2018-11-03T12:51:28.014Z,12.23
2018-11-03T12:53:59.298Z,13.13
2018-11-03T12:56:30.688Z,10.07
2018-11-03T12:59:04.210Z,10.10
2018-11-03T13:01:35.526Z,8.97
2018-11-03T13:04:06.777Z,8.73
2018-11-03T13:06:38.134Z,8.63
2018-11-03T13:09:10.973Z,8.23
2018-11-03T13:11:42.202Z,8.20
2018-11-03T13:14:13.268Z,8.87
2018-11-03T13:16:45.664Z,7.97
2018-11-03T13:19:16.966Z,9.03
2018-11-03T13:21:48.174Z,9.18
2018-11-03T13:24:19.343Z,6.67
2018-11-03T13:26:50.473Z,6.47
2018-11-03T13:29:21.765Z,7.22
2018-11-03T13:31:53.050Z,6.87
2018-11-03T13:34:24.307Z,6.60
2018-11-03T13:36:55.361Z,4.90
2018-11-03T13:39:26.670Z,4.67
2018-11-03T13:41:57.849Z,3.72
2018-11-03T13:44:29.001Z,3.13
2018-11-03T13:47:00.225Z,3.30
2018-11-03T13:49:31.273Z,3.90
2018-11-03T13:52:02.476Z,4.43
2018-11-03T13:54:33.775Z,3.83
2018-11-03T13:57:05.047Z,3.93
2018-11-03T13:59:36.261Z,3.93
2018-11-03T14:02:07.647Z,3.70
2018-11-03T14:04:38.665Z,4.12
2018-11-03T14:07:11.410Z,3.50
2018-11-03T14:09:42.633Z,3.60
2018-11-03T14:12:13.855Z,3.52
2018-11-03T14:14:45.158Z,4.50
2018-11-03T14:17:16.502Z,5.03
2018-11-03T14:19:47.807Z,8.90
2018-11-03T14:22:19.838Z,6.90
2018-11-03T14:24:51.104Z,8.10
2018-11-03T14:27:22.325Z,8.63
2018-11-03T14:29:53.531Z,6.87
2018-11-03T14:32:24.547Z,5.70
2018-11-03T14:34:55.778Z,6.23
2018-11-03T14:37:29.776Z,6.97
2018-11-03T14:40:01.034Z,8.63
2018-11-03T14:42:34.005Z,8.78
2018-11-03T14:45:05.340Z,8.70
2018-11-03T14:47:36.567Z,9.65
2018-11-03T14:50:08.715Z,10.10
2018-11-03T14:52:41.217Z,9.45
2018-11-03T14:55:13.246Z,10.35
2018-11-03T14:57:44.406Z,11.03
2018-11-03T15:00:16.786Z,12.07
2018-11-03T15:02:48.139Z,11.85
2018-11-03T15:05:19.536Z,11.30
2018-11-03T15:07:50.924Z,10.82
2018-11-03T15:10:22.105Z,10.50
2018-11-03T15:12:53.417Z,10.35
2018-11-03T15:15:24.766Z,9.97
2018-11-03T15:20:46.073Z,8.03
2018-11-03T15:23:17.729Z,7.25
2018-11-03T15:25:49.076Z,6.87
2018-11-03T15:28:22.061Z,6.62
2018-11-03T15:30:53.334Z,6.23
2018-11-03T15:33:24.620Z,5.22
2018-11-03T15:35:55.947Z,5.03
2018-11-03T15:38:29.840Z,5.57
2018-11-03T15:41:01.069Z,5.27
2018-11-03T15:43:32.164Z,6.03
2018-11-03T15:46:04.510Z,6.12
2018-11-03T15:48:35.778Z,5.53
2018-11-03T15:51:10.014Z,6.60
2018-11-03T15:53:41.268Z,6.25
2018-11-03T15:56:14.299Z,6.27
2018-11-03T15:58:45.446Z,5.75
2018-11-03T16:01:16.597Z,6.57
2018-11-03T16:03:48.007Z,7.10
2018-11-03T16:06:19.398Z,8.47
2018-11-03T16:08:50.860Z,9.20
2018-11-03T16:11:22.186Z,8.98
2018-11-03T16:13:53.326Z,8.00
2018-11-03T16:16:25.542Z,8.03
2018-11-03T16:18:56.691Z,6.95
2018-11-03T16:21:29.814Z,7.03
2018-11-03T16:24:01.208Z,7.10
2018-11-03T16:26:32.463Z,7.03
2018-11-03T16:29:03.807Z,7.30
2018-11-03T16:31:34.892Z,6.80
2018-11-03T16:34:07.557Z,7.35
2018-11-03T16:36:38.776Z,7.80
2018-11-03T16:39:11.230Z,8.33
2018-11-03T16:41:42.415Z,8.45
2018-11-03T16:44:13.696Z,7.90
2018-11-03T16:46:44.921Z,7.28
2018-11-03T16:49:20.146Z,7.50
2018-11-03T16:51:51.517Z,7.00
2018-11-03T16:54:23.295Z,7.00
2018-11-03T16:56:54.536Z,6.95
2018-11-03T16:59:25.799Z,6.97
2018-11-03T17:01:57.082Z,7.77
2018-11-03T17:04:29.853Z,8.08
2018-11-03T17:07:01.252Z,7.90
2018-11-03T17:09:32.518Z,9.70
2018-11-03T17:12:03.814Z,13.50
2018-11-03T17:14:35.215Z,14.05
2018-11-03T17:17:06.503Z,13.72
2018-11-03T17:19:37.860Z,10.53
2018-11-03T17:22:09.117Z,11.23
2018-11-03T17:24:40.373Z,10.28
2018-11-03T17:27:11.584Z,10.20
2018-11-03T17:29:43.135Z,8.43
2018-11-03T17:32:14.214Z,9.60
2018-11-03T17:34:45.717Z,8.43
2018-11-03T17:37:16.959Z,8.40
2018-11-03T17:39:48.373Z,8.57
2018-11-03T17:42:19.570Z,8.00
2018-11-03T17:44:51.618Z,8.47
2018-11-03T17:47:22.855Z,8.43
2018-11-03T17:49:54.071Z,8.37
2018-11-03T17:52:26.455Z,9.63
2018-11-03T17:54:59.812Z,8.30
2018-11-03T17:57:30.918Z,8.40
2018-11-03T18:00:02.213Z,9.07
2018-11-03T18:02:33.311Z,8.10
2018-11-03T18:05:05.068Z,7.80
2018-11-03T18:07:36.319Z,7.80
2018-11-03T18:10:09.032Z,6.93
2018-11-03T18:12:40.360Z,7.77
2018-11-03T18:15:11.746Z,8.77
2018-11-03T18:17:43.475Z,8.20
2018-11-03T18:20:14.719Z,9.00
2018-11-03T18:22:45.983Z,9.67
2018-11-03T18:25:17.294Z,9.93
2018-11-03T18:27:48.419Z,10.00
2018-11-03T18:30:19.508Z,10.43
2018-11-03T18:32:50.733Z,11.20
2018-11-03T18:35:22.071Z,9.57
2018-11-03T18:37:53.316Z,9.97
2018-11-03T18:40:24.540Z,10.70
2018-11-03T18:42:55.843Z,10.00
2018-11-03T18:45:27.025Z,10.70
2018-11-03T18:47:58.240Z,11.67
2018-11-03T18:50:29.474Z,14.07
2018-11-03T18:53:00.660Z,13.90
2018-11-03T18:55:31.979Z,13.07
2018-11-03T18:58:03.279Z,13.63
2018-11-03T19:00:34.480Z,12.97
2018-11-03T19:03:05.935Z,11.30
2018-11-03T19:05:40.176Z,11.23
2018-11-03T19:08:09.208Z,11.07
2018-11-03T19:10:40.797Z,10.93
2018-11-03T19:13:12.228Z,10.87
2018-11-03T19:15:43.487Z,11.97
2018-11-03T19:18:14.887Z,13.40
2018-11-03T19:20:46.181Z,11.60
2018-11-03T19:23:17.514Z,12.57
2018-11-03T19:25:48.946Z,11.07
2018-11-03T19:28:20.276Z,11.70
2018-11-03T19:30:51.511Z,12.00
2018-11-03T19:33:22.748Z,11.50
2018-11-03T19:35:54.196Z,13.43
2018-11-03T19:38:25.399Z,16.77
2018-11-03T19:40:56.698Z,17.40
2018-11-03T19:43:28.068Z,15.83
2018-11-03T19:45:59.462Z,14.30
2018-11-03T19:48:30.692Z,12.90
2018-11-03T19:51:02.063Z,12.77
2018-11-03T19:53:33.422Z,12.10
2018-11-03T19:56:04.692Z,12.03
2018-11-03T19:58:36.110Z,13.40
2018-11-03T20:01:07.676Z,15.17
2018-11-03T20:03:39.031Z,13.90
2018-11-03T20:06:10.308Z,15.00
2018-11-03T20:08:41.651Z,14.10
2018-11-03T20:11:13.110Z,14.23
2018-11-03T20:13:44.269Z,14.93
2018-11-03T20:16:15.520Z,14.07
2018-11-03T20:18:46.948Z,13.47
2018-11-03T20:21:18.273Z,13.40
2018-11-03T20:23:50.240Z,12.53
2018-11-03T20:26:21.600Z,12.80
2018-11-03T20:28:52.981Z,15.83
2018-11-03T20:31:24.573Z,16.43
2018-11-03T20:33:55.867Z,14.87
2018-11-03T20:36:27.241Z,13.90
2018-11-03T20:38:58.571Z,13.90
2018-11-03T20:41:32.514Z,14.40
2018-11-03T20:44:04.188Z,14.43
2018-11-03T20:46:37.967Z,12.83
2018-11-03T20:49:07.295Z,14.33
2018-11-03T20:51:38.572Z,16.60
2018-11-03T20:54:09.661Z,14.73
2018-11-03T20:56:41.061Z,15.90
2018-11-03T20:59:12.245Z,15.13
2018-11-03T21:01:43.663Z,15.50
2018-11-03T21:04:18.915Z,16.23
2018-11-03T21:06:50.165Z,14.23
2018-11-03T21:09:21.565Z,14.13
2018-11-03T21:11:52.855Z,13.27
2018-11-03T21:14:24.086Z,14.33
2018-11-03T21:16:55.494Z,13.60
2018-11-03T21:19:26.731Z,14.57
2018-11-03T21:21:58.129Z,14.90
2018-11-03T21:24:29.413Z,14.93
2018-11-03T21:27:00.611Z,15.37
2018-11-03T21:29:31.852Z,15.57
2018-11-03T21:32:03.290Z,14.70
2018-11-03T21:34:34.650Z,15.50
2018-11-03T21:37:06.050Z,13.87
2018-11-03T21:39:37.266Z,14.63
2018-11-03T21:42:08.556Z,13.20
2018-11-03T21:44:39.844Z,13.60
2018-11-03T21:47:11.375Z,13.87
2018-11-03T21:49:42.446Z,13.73
2018-11-03T21:52:13.595Z,14.40
2018-11-03T21:54:44.788Z,13.93
2018-11-03T21:57:17.979Z,14.70
2018-11-03T21:59:49.265Z,13.83
2018-11-03T22:02:20.505Z,14.00
2018-11-03T22:04:52.701Z,14.40
2018-11-03T22:07:23.857Z,14.30
2018-11-03T22:09:55.294Z,14.37
2018-11-03T22:12:26.853Z,14.77
2018-11-03T22:14:58.120Z,14.30
2018-11-03T22:17:29.830Z,14.33
2018-11-03T22:20:01.216Z,14.60
2018-11-03T22:22:34.569Z,15.20
2018-11-03T22:25:06.391Z,13.27
2018-11-03T22:27:38.069Z,14.37
2018-11-03T22:30:12.493Z,14.20
2018-11-03T22:32:43.686Z,14.73
2018-11-03T22:35:15.050Z,14.80
2018-11-03T22:37:46.311Z,14.13
2018-11-03T22:40:17.653Z,14.77
2018-11-03T22:42:49.046Z,14.57
2018-11-03T22:45:20.199Z,14.30
2018-11-03T22:47:51.567Z,14.57
2018-11-03T22:50:22.781Z,13.10
2018-11-03T22:52:55.224Z,13.53
2018-11-03T22:55:29.873Z,14.10
2018-11-03T22:58:01.078Z,13.67
2018-11-03T23:00:32.329Z,13.80
2018-11-03T23:03:03.613Z,13.87
2018-11-03T23:05:34.923Z,15.13
2018-11-03T23:08:06.362Z,13.73
2018-11-03T23:10:37.465Z,14.83
2018-11-03T23:13:08.971Z,16.73
2018-11-03T23:15:40.134Z,15.53
2018-11-03T23:18:11.475Z,14.10
2018-11-03T23:20:42.664Z,15.37
2018-11-03T23:23:14.013Z,14.70
2018-11-03T23:25:45.077Z,14.97
2018-11-03T23:28:16.343Z,15.10
2018-11-03T23:30:47.651Z,14.67
2018-11-03T23:33:18.699Z,14.17
2018-11-03T23:35:50.008Z,15.33
2018-11-03T23:38:21.319Z,14.50
2018-11-03T23:40:52.365Z,14.50
2018-11-03T23:43:23.506Z,14.07
2018-11-03T23:45:54.677Z,15.37
2018-11-03T23:48:25.709Z,13.97
2018-11-03T23:50:56.786Z,14.83
2018-11-03T23:53:28.078Z,14.73
2018-11-03T23:55:59.156Z,14.43
2018-11-03T23:58:30.303Z,14.73
